createdAt,value
2023-01-13T00:00:29.278Z,66.47
2023-01-13T00:01:29.324Z,66.13
2023-01-13T00:02:29.234Z,64.59
2023-01-13T00:03:29.215Z,66.32
2023-01-13T00:04:29.202Z,68.19
2023-01-13T00:05:29.147Z,67.70
2023-01-13T00:06:29.167Z,62.93
2023-01-13T00:07:29.113Z,67.62
2023-01-13T00:08:29.100Z,66.27
2023-01-13T00:09:29.149Z,64.73
2023-01-13T00:10:29.077Z,64.69
2023-01-13T00:11:29.098Z,66.05
2023-01-13T00:12:29.035Z,68.07
2023-01-13T00:13:29.017Z,65.68
2023-01-13T00:14:29.000Z,64.16
2023-01-13T00:15:29.007Z,63.19
2023-01-13T00:16:28.994Z,66.63
2023-01-13T00:17:28.975Z,62.67
2023-01-13T00:18:28.941Z,64.37
2023-01-13T00:19:28.925Z,63.62
2023-01-13T00:20:28.908Z,65.74
2023-01-13T00:21:28.936Z,67.52
2023-01-13T00:22:28.873Z,64.74
2023-01-13T00:23:28.853Z,64.97
2023-01-13T00:24:28.848Z,67.49
2023-01-13T00:25:28.849Z,66.44
2023-01-13T00:26:28.827Z,66.10
2023-01-13T00:27:28.785Z,65.91
2023-01-13T00:28:28.794Z,67.01
2023-01-13T00:29:28.758Z,68.17
2023-01-13T00:30:28.744Z,66.71
2023-01-13T00:31:28.787Z,66.17
2023-01-13T00:32:28.708Z,66.94
2023-01-13T00:33:28.724Z,65.90
2023-01-13T00:34:28.668Z,65.01
2023-01-13T00:35:28.656Z,65.29
2023-01-13T00:36:28.683Z,65.91
2023-01-13T00:37:28.628Z,66.61
2023-01-13T00:38:28.619Z,62.81
2023-01-13T00:39:28.586Z,65.82
2023-01-13T00:40:28.558Z,65.64
2023-01-13T00:41:28.600Z,61.78
2023-01-13T00:42:28.536Z,66.61
2023-01-13T00:43:28.517Z,68.79
2023-01-13T00:44:28.497Z,65.61
2023-01-13T00:45:28.474Z,64.71
2023-01-13T00:46:28.583Z,61.85
2023-01-13T00:47:28.429Z,62.98
2023-01-13T00:48:28.445Z,67.47
2023-01-13T00:49:28.405Z,67.06
2023-01-13T00:50:28.405Z,67.17
2023-01-13T00:51:28.409Z,67.71
2023-01-13T00:52:28.393Z,67.13
2023-01-13T00:53:28.348Z,67.68
2023-01-13T00:54:28.326Z,65.39
2023-01-13T00:55:28.312Z,64.93
2023-01-13T00:56:39.682Z,64.83
2023-01-13T00:57:30.268Z,65.20
2023-01-13T00:58:28.324Z,65.73
2023-01-13T00:59:28.255Z,67.61
2023-01-13T01:00:28.244Z,69.03
2023-01-13T01:01:28.323Z,66.98
2023-01-13T01:02:28.296Z,67.83
2023-01-13T01:03:28.188Z,66.79
2023-01-13T01:04:28.211Z,64.36
2023-01-13T01:05:28.166Z,68.72
2023-01-13T01:06:28.174Z,69.26
2023-01-13T01:07:28.112Z,66.28
2023-01-13T01:08:28.091Z,65.55
2023-01-13T01:09:28.078Z,66.68
2023-01-13T01:10:28.055Z,67.44
2023-01-13T01:11:28.063Z,63.19
2023-01-13T01:12:28.026Z,64.25
2023-01-13T01:13:28.010Z,64.49
2023-01-13T01:14:27.981Z,68.02
2023-01-13T01:15:27.999Z,66.60
2023-01-13T01:16:28.057Z,67.01
2023-01-13T01:17:27.929Z,68.39
2023-01-13T01:18:27.935Z,64.75
2023-01-13T01:19:27.898Z,66.02
2023-01-13T01:20:27.875Z,66.13
2023-01-13T01:21:27.929Z,67.14
2023-01-13T01:22:27.851Z,65.80
2023-01-13T01:23:27.830Z,67.07
2023-01-13T01:24:27.812Z,66.59
2023-01-13T01:25:27.826Z,68.14
2023-01-13T01:26:27.897Z,66.82
2023-01-13T01:27:27.791Z,67.99
2023-01-13T01:28:27.743Z,69.90
2023-01-13T01:29:27.731Z,67.16
2023-01-13T01:30:27.707Z,64.74
2023-01-13T01:31:27.792Z,67.32
2023-01-13T01:32:27.683Z,67.33
2023-01-13T01:33:27.658Z,63.66
2023-01-13T01:34:27.627Z,65.73
2023-01-13T01:35:27.629Z,64.80
2023-01-13T01:36:27.652Z,65.79
2023-01-13T01:37:27.601Z,68.06
2023-01-13T01:38:27.585Z,67.18
2023-01-13T01:39:27.565Z,64.44
2023-01-13T01:40:27.549Z,64.44
2023-01-13T01:41:27.554Z,67.19
2023-01-13T01:42:27.505Z,66.79
2023-01-13T01:43:27.502Z,64.60
2023-01-13T01:44:27.488Z,63.54
2023-01-13T01:45:27.484Z,66.50
2023-01-13T01:46:27.567Z,67.10
2023-01-13T01:47:27.429Z,65.24
2023-01-13T01:48:27.421Z,66.88
2023-01-13T01:49:27.454Z,67.24
2023-01-13T01:50:27.386Z,67.32
2023-01-13T01:51:27.400Z,66.65
2023-01-13T01:52:27.353Z,66.86
2023-01-13T01:53:27.337Z,66.66
2023-01-13T01:54:27.333Z,65.23
2023-01-13T01:55:27.313Z,66.94
2023-01-13T01:56:27.326Z,67.11
2023-01-13T01:57:27.274Z,67.21
2023-01-13T01:58:27.256Z,68.88
2023-01-13T01:59:27.274Z,67.09
2023-01-13T02:00:27.224Z,67.55
2023-01-13T02:01:27.311Z,66.79
2023-01-13T02:02:28.226Z,64.72
2023-01-13T02:03:27.194Z,66.92
2023-01-13T02:04:28.172Z,68.96
2023-01-13T02:05:27.133Z,66.38
2023-01-13T02:06:27.153Z,63.42
2023-01-13T02:07:27.139Z,67.42
2023-01-13T02:08:27.092Z,63.55
2023-01-13T02:09:27.070Z,68.95
2023-01-13T02:10:27.058Z,65.37
2023-01-13T02:11:27.064Z,64.91
2023-01-13T02:12:27.014Z,63.95
2023-01-13T02:13:27.008Z,65.40
2023-01-13T02:14:26.980Z,66.05
2023-01-13T02:15:26.962Z,66.24
2023-01-13T02:16:27.008Z,66.95
2023-01-13T02:17:26.937Z,66.49
2023-01-13T02:18:26.913Z,68.26
2023-01-13T02:19:26.891Z,66.73
2023-01-13T02:20:26.950Z,66.63
2023-01-13T02:21:26.885Z,65.34
2023-01-13T02:22:26.838Z,63.65
2023-01-13T02:23:26.817Z,65.46
2023-01-13T02:24:26.815Z,66.73
2023-01-13T02:25:26.791Z,66.86
2023-01-13T02:26:26.832Z,67.48
2023-01-13T02:27:26.773Z,67.16
2023-01-13T02:28:26.797Z,68.94
2023-01-13T02:29:26.733Z,68.53
2023-01-13T02:30:26.704Z,65.67
2023-01-13T02:31:26.828Z,66.35
2023-01-13T02:32:26.674Z,66.42
2023-01-13T02:33:26.672Z,64.78
2023-01-13T02:34:26.631Z,67.21
2023-01-13T02:35:26.638Z,66.29
2023-01-13T02:36:26.598Z,65.13
2023-01-13T02:37:26.627Z,65.99
2023-01-13T02:38:26.565Z,65.96
2023-01-13T02:39:26.580Z,67.00
2023-01-13T02:40:26.552Z,66.52
2023-01-13T02:41:26.528Z,64.58
2023-01-13T02:42:26.548Z,65.51
2023-01-13T02:43:26.494Z,66.67
2023-01-13T02:44:26.471Z,66.13
2023-01-13T02:45:26.491Z,66.75
2023-01-13T02:46:26.423Z,66.79
2023-01-13T02:47:27.448Z,66.53
2023-01-13T02:48:26.416Z,67.93
2023-01-13T02:49:26.414Z,63.34
2023-01-13T02:50:26.363Z,67.04
2023-01-13T02:51:26.354Z,68.38
2023-01-13T02:52:26.368Z,64.08
2023-01-13T02:53:26.317Z,66.01
2023-01-13T02:54:26.304Z,66.20
2023-01-13T02:55:26.287Z,67.47
2023-01-13T02:56:26.327Z,66.41
2023-01-13T02:57:26.290Z,63.64
2023-01-13T02:58:26.231Z,65.75
2023-01-13T02:59:26.239Z,66.89
2023-01-13T03:00:26.092Z,65.90
2023-01-13T03:01:26.215Z,65.37
2023-01-13T03:02:26.175Z,65.95
2023-01-13T03:03:26.037Z,66.21
2023-01-13T03:04:26.014Z,65.68
2023-01-13T03:05:25.999Z,65.33
2023-01-13T03:06:25.990Z,68.17
2023-01-13T03:07:26.005Z,66.20
2023-01-13T03:08:25.949Z,65.82
2023-01-13T03:09:25.932Z,63.31
2023-01-13T03:10:25.976Z,64.75
2023-01-13T03:11:25.939Z,64.33
2023-01-13T03:12:25.911Z,60.14
2023-01-13T03:13:25.869Z,64.93
2023-01-13T03:14:25.845Z,64.23
2023-01-13T03:15:25.833Z,63.90
2023-01-13T03:16:25.831Z,64.71
2023-01-13T03:17:25.831Z,64.20
2023-01-13T03:18:25.804Z,65.34
2023-01-13T03:19:25.780Z,62.35
2023-01-13T03:20:25.756Z,63.28
2023-01-13T03:21:25.768Z,65.05
2023-01-13T03:22:25.875Z,64.55
2023-01-13T03:23:25.708Z,65.92
2023-01-13T03:24:25.690Z,63.76
2023-01-13T03:25:25.686Z,66.25
2023-01-13T03:26:25.648Z,64.86
2023-01-13T03:27:25.671Z,63.67
2023-01-13T03:28:25.618Z,63.99
2023-01-13T03:29:25.619Z,62.71
2023-01-13T03:30:25.620Z,63.19
2023-01-13T03:31:25.580Z,63.61
2023-01-13T03:32:25.605Z,64.68
2023-01-13T03:33:25.538Z,63.64
2023-01-13T03:34:25.526Z,64.54
2023-01-13T03:35:25.504Z,65.18
2023-01-13T03:36:25.501Z,64.03
2023-01-13T03:37:25.508Z,65.46
2023-01-13T03:38:25.465Z,65.41
2023-01-13T03:39:25.464Z,63.78
2023-01-13T03:40:25.415Z,63.50
2023-01-13T03:41:25.415Z,64.49
2023-01-13T03:42:25.425Z,64.50
2023-01-13T03:43:25.373Z,63.10
2023-01-13T03:44:25.370Z,65.42
2023-01-13T03:45:25.362Z,66.68
2023-01-13T03:46:25.327Z,67.57
2023-01-13T03:47:25.355Z,66.11
2023-01-13T03:48:25.299Z,67.29
2023-01-13T03:49:25.279Z,64.64
2023-01-13T03:50:25.265Z,65.76
2023-01-13T03:51:25.244Z,67.01
2023-01-13T03:52:25.252Z,67.35
2023-01-13T03:53:25.208Z,65.04
2023-01-13T03:54:25.207Z,66.27
2023-01-13T03:55:25.172Z,66.00
2023-01-13T03:56:25.154Z,67.92
2023-01-13T03:57:25.181Z,66.34
2023-01-13T03:58:25.124Z,64.94
2023-01-13T03:59:25.111Z,68.98
2023-01-13T04:00:25.098Z,66.23
2023-01-13T04:01:25.167Z,66.99
2023-01-13T04:02:25.083Z,68.34
2023-01-13T04:03:25.057Z,66.08
2023-01-13T04:04:25.027Z,67.60
2023-01-13T04:05:24.993Z,66.78
2023-01-13T04:06:24.992Z,65.66
2023-01-13T04:07:25.019Z,66.59
2023-01-13T04:08:24.940Z,65.86
2023-01-13T04:09:24.924Z,66.18
2023-01-13T04:10:24.965Z,66.90
2023-01-13T04:11:24.911Z,67.71
2023-01-13T04:12:24.888Z,67.30
2023-01-13T04:13:24.920Z,64.12
2023-01-13T04:14:24.853Z,67.55
2023-01-13T04:15:24.910Z,67.58
2023-01-13T04:16:24.816Z,65.64
2023-01-13T04:17:24.810Z,64.82
2023-01-13T04:18:24.818Z,67.60
2023-01-13T04:19:24.773Z,67.54
2023-01-13T04:20:24.745Z,67.16
2023-01-13T04:21:24.724Z,66.89
2023-01-13T04:22:24.709Z,68.68
2023-01-13T04:23:24.739Z,66.28
2023-01-13T04:24:24.702Z,66.61
2023-01-13T04:25:24.658Z,66.91
2023-01-13T04:26:24.654Z,67.64
2023-01-13T04:27:24.632Z,69.32
2023-01-13T04:28:24.647Z,66.93
2023-01-13T04:29:24.608Z,65.10
2023-01-13T04:30:24.578Z,65.61
2023-01-13T04:31:24.722Z,71.26
2023-01-13T04:32:24.554Z,68.98
2023-01-13T04:33:24.551Z,64.46
2023-01-13T04:34:25.831Z,66.81
2023-01-13T04:35:24.498Z,69.16
2023-01-13T04:36:24.474Z,67.39
2023-01-13T04:37:24.462Z,68.13
2023-01-13T04:38:24.491Z,67.36
2023-01-13T04:39:24.437Z,67.54
2023-01-13T04:40:24.412Z,66.33
2023-01-13T04:41:24.404Z,67.76
2023-01-13T04:42:24.380Z,65.47
2023-01-13T04:43:24.400Z,64.61
2023-01-13T04:44:24.355Z,66.30
2023-01-13T04:45:24.390Z,66.29
2023-01-13T04:46:24.330Z,68.34
2023-01-13T04:47:24.289Z,67.99
2023-01-13T04:48:24.302Z,67.26
2023-01-13T04:49:24.360Z,64.64
2023-01-13T04:50:24.251Z,67.95
2023-01-13T04:51:24.218Z,69.32
2023-01-13T04:52:24.213Z,67.80
2023-01-13T04:53:24.216Z,67.46
2023-01-13T04:54:24.166Z,66.87
2023-01-13T04:55:24.162Z,69.02
2023-01-13T04:56:24.147Z,67.61
2023-01-13T04:57:24.132Z,65.80
2023-01-13T04:58:24.146Z,67.24
2023-01-13T04:59:24.091Z,65.82
2023-01-13T05:00:24.088Z,66.33
2023-01-13T05:01:24.187Z,68.20
2023-01-13T05:02:24.078Z,66.96
2023-01-13T05:03:24.041Z,68.29
2023-01-13T05:04:24.073Z,68.52
2023-01-13T05:05:23.982Z,67.18
2023-01-13T05:06:23.982Z,69.72
2023-01-13T05:07:23.963Z,68.65
2023-01-13T05:08:23.970Z,69.46
2023-01-13T05:09:23.926Z,67.74
2023-01-13T05:10:24.264Z,65.97
2023-01-13T05:11:24.890Z,69.69
2023-01-13T05:12:23.893Z,68.14
2023-01-13T05:13:23.895Z,68.69
2023-01-13T05:14:23.871Z,68.75
2023-01-13T05:15:23.815Z,67.70
2023-01-13T05:16:23.848Z,67.09
2023-01-13T05:17:23.789Z,66.72
2023-01-13T05:18:23.790Z,67.94
2023-01-13T05:19:23.810Z,68.60
2023-01-13T05:20:23.736Z,68.54
2023-01-13T05:21:23.733Z,67.71
2023-01-13T05:22:23.705Z,68.17
2023-01-13T05:23:23.745Z,68.08
2023-01-13T05:24:23.734Z,69.12
2023-01-13T05:25:23.679Z,69.16
2023-01-13T05:26:23.627Z,69.93
2023-01-13T05:27:24.620Z,69.39
2023-01-13T05:28:23.628Z,68.77
2023-01-13T05:29:23.585Z,69.39
2023-01-13T05:30:23.572Z,68.82
2023-01-13T05:31:23.595Z,70.55
2023-01-13T05:32:23.538Z,67.35
2023-01-13T05:33:23.562Z,67.25
2023-01-13T05:34:23.510Z,68.34
2023-01-13T05:35:23.501Z,69.33
2023-01-13T05:36:23.463Z,69.90
2023-01-13T05:37:23.480Z,68.18
2023-01-13T05:38:23.490Z,67.02
2023-01-13T05:39:23.422Z,66.12
2023-01-13T05:40:24.400Z,68.51
2023-01-13T05:41:23.385Z,67.11
2023-01-13T05:42:23.366Z,68.21
2023-01-13T05:43:23.375Z,68.53
2023-01-13T05:44:23.328Z,67.85
2023-01-13T05:45:23.308Z,66.99
2023-01-13T05:46:23.315Z,68.86
2023-01-13T05:47:23.401Z,67.76
2023-01-13T05:48:23.309Z,66.94
2023-01-13T05:49:23.258Z,67.68
2023-01-13T05:50:23.248Z,68.49
2023-01-13T05:51:23.207Z,67.49
2023-01-13T05:52:23.202Z,67.58
2023-01-13T05:53:50.656Z,67.63
2023-01-13T05:54:23.169Z,67.98
2023-01-13T05:55:23.146Z,69.29
2023-01-13T05:56:23.155Z,69.25
2023-01-13T05:57:23.167Z,69.66
2023-01-13T05:58:23.137Z,68.95
2023-01-13T05:59:23.075Z,70.30
2023-01-13T06:00:23.064Z,68.72
2023-01-13T06:01:23.131Z,68.98
2023-01-13T06:02:23.034Z,69.60
2023-01-13T06:03:23.048Z,68.28
2023-01-13T06:04:23.045Z,67.19
2023-01-13T06:05:23.028Z,69.22
2023-01-13T06:06:22.966Z,68.83
2023-01-13T06:07:22.945Z,69.11
2023-01-13T06:08:23.012Z,68.88
2023-01-13T06:09:22.914Z,70.80
2023-01-13T06:10:22.880Z,68.17
2023-01-13T06:11:22.873Z,68.66
2023-01-13T06:12:22.875Z,68.33
2023-01-13T06:13:22.894Z,70.32
2023-01-13T06:14:22.836Z,70.50
2023-01-13T06:15:22.816Z,69.22
2023-01-13T06:16:22.923Z,69.67
2023-01-13T06:17:22.779Z,70.85
2023-01-13T06:18:22.802Z,68.46
2023-01-13T06:19:22.752Z,70.03
2023-01-13T06:20:22.743Z,68.32
2023-01-13T06:21:22.728Z,68.40
2023-01-13T06:22:22.697Z,68.72
2023-01-13T06:23:22.723Z,70.14
2023-01-13T06:24:22.661Z,68.48
2023-01-13T06:25:22.634Z,68.30
2023-01-13T06:26:22.645Z,68.92
2023-01-13T06:27:22.622Z,70.06
2023-01-13T06:28:22.651Z,69.96
2023-01-13T06:29:22.612Z,70.31
2023-01-13T06:30:22.556Z,68.89
2023-01-13T06:31:22.626Z,70.32
2023-01-13T06:32:22.562Z,70.77
2023-01-13T06:33:22.551Z,70.67
2023-01-13T06:34:22.485Z,70.25
2023-01-13T06:35:22.489Z,70.24
2023-01-13T06:36:22.534Z,67.88
2023-01-13T06:37:22.462Z,69.60
2023-01-13T06:38:22.468Z,69.25
2023-01-13T06:39:22.428Z,69.05
2023-01-13T06:40:22.378Z,69.17
2023-01-13T06:41:22.370Z,70.86
2023-01-13T06:42:22.351Z,67.59
2023-01-13T06:43:22.335Z,69.03
2023-01-13T06:44:22.345Z,70.45
2023-01-13T06:45:22.299Z,69.87
2023-01-13T06:46:22.335Z,70.51
2023-01-13T06:47:22.279Z,70.58
2023-01-13T06:48:22.258Z,70.54
2023-01-13T06:49:22.267Z,68.67
2023-01-13T06:50:22.218Z,69.23
2023-01-13T06:51:22.210Z,69.78
2023-01-13T06:52:22.189Z,69.06
2023-01-13T06:53:22.154Z,70.23
2023-01-13T06:54:22.182Z,67.63
2023-01-13T06:55:22.132Z,66.07
2023-01-13T06:56:22.118Z,69.04
2023-01-13T06:57:22.101Z,68.46
2023-01-13T06:58:22.072Z,68.80
2023-01-13T06:59:22.085Z,69.07
2023-01-13T07:00:22.043Z,71.22
2023-01-13T07:01:22.095Z,69.97
2023-01-13T07:02:22.147Z,68.62
2023-01-13T07:03:22.017Z,69.33
2023-01-13T07:04:22.012Z,70.07
2023-01-13T07:05:21.975Z,69.76
2023-01-13T07:06:21.947Z,70.17
2023-01-13T07:07:21.972Z,70.08
2023-01-13T07:08:21.909Z,70.42
2023-01-13T07:09:21.945Z,70.15
2023-01-13T07:10:21.916Z,69.67
2023-01-13T07:11:21.857Z,69.47
2023-01-13T07:12:21.846Z,70.06
2023-01-13T07:13:21.831Z,69.99
2023-01-13T07:14:21.846Z,68.33
2023-01-13T07:15:21.841Z,67.46
2023-01-13T07:16:21.824Z,69.77
2023-01-13T07:17:21.756Z,69.68
2023-01-13T07:18:21.790Z,69.82
2023-01-13T07:19:22.244Z,69.48
2023-01-13T07:20:22.713Z,71.65
2023-01-13T07:21:21.776Z,66.91
2023-01-13T07:22:21.671Z,68.71
2023-01-13T07:23:21.648Z,69.52
2023-01-13T07:24:21.666Z,69.58
2023-01-13T07:25:21.655Z,69.29
2023-01-13T07:26:21.600Z,70.54
2023-01-13T07:27:21.594Z,69.77
2023-01-13T07:28:21.566Z,70.75
2023-01-13T07:29:21.584Z,67.71
2023-01-13T07:30:21.572Z,69.04
2023-01-13T07:31:21.577Z,70.35
2023-01-13T07:32:21.519Z,72.21
2023-01-13T07:33:21.482Z,71.20
2023-01-13T07:34:21.503Z,70.55
2023-01-13T07:35:21.457Z,69.66
2023-01-13T07:36:21.518Z,69.77
2023-01-13T07:37:21.420Z,70.12
2023-01-13T07:38:21.390Z,70.82
2023-01-13T07:39:21.404Z,69.29
2023-01-13T07:40:21.364Z,67.73
2023-01-13T07:41:21.352Z,70.69
2023-01-13T07:42:21.336Z,70.36
2023-01-13T07:43:21.314Z,70.81
2023-01-13T07:44:21.321Z,70.15
2023-01-13T07:45:21.279Z,68.95
2023-01-13T07:46:21.287Z,68.69
2023-01-13T07:47:21.242Z,70.52
2023-01-13T07:48:21.240Z,72.10
2023-01-13T07:49:21.248Z,69.45
2023-01-13T07:50:21.198Z,70.23
2023-01-13T07:51:21.168Z,67.71
2023-01-13T07:52:21.161Z,68.74
2023-01-13T07:53:21.138Z,70.68
2023-01-13T07:54:28.392Z,70.32
2023-01-13T07:55:23.099Z,71.28
2023-01-13T07:56:21.104Z,70.53
2023-01-13T07:57:21.082Z,70.09
2023-01-13T07:58:21.071Z,72.38
2023-01-13T07:59:21.142Z,69.48
2023-01-13T08:00:21.039Z,67.87
2023-01-13T08:01:21.085Z,70.11
2023-01-13T08:02:21.216Z,69.56
2023-01-13T08:03:20.986Z,69.24
2023-01-13T08:04:20.993Z,68.37
2023-01-13T08:05:20.944Z,68.46
2023-01-13T08:06:20.925Z,68.64
2023-01-13T08:07:20.907Z,69.07
2023-01-13T08:08:20.933Z,69.55
2023-01-13T08:09:20.904Z,68.97
2023-01-13T08:10:20.846Z,68.29
2023-01-13T08:11:23.411Z,68.71
2023-01-13T08:12:21.831Z,69.50
2023-01-13T08:13:20.818Z,67.42
2023-01-13T08:14:20.841Z,69.44
2023-01-13T08:15:20.760Z,70.16
2023-01-13T08:16:20.797Z,68.22
2023-01-13T08:17:20.899Z,69.42
2023-01-13T08:18:20.742Z,71.72
2023-01-13T08:19:20.739Z,69.20
2023-01-13T08:20:20.694Z,70.58
2023-01-13T08:21:20.695Z,69.42
2023-01-13T08:22:20.697Z,69.97
2023-01-13T08:23:20.656Z,68.89
2023-01-13T08:24:20.652Z,69.41
2023-01-13T08:25:20.595Z,68.10
2023-01-13T08:26:20.583Z,69.88
2023-01-13T08:27:20.580Z,69.72
2023-01-13T08:28:20.557Z,70.11
2023-01-13T08:29:20.568Z,68.30
2023-01-13T08:30:20.543Z,68.09
2023-01-13T08:31:20.643Z,70.70
2023-01-13T08:32:20.494Z,71.44
2023-01-13T08:33:20.508Z,69.46
2023-01-13T08:34:20.502Z,67.06
2023-01-13T08:35:20.435Z,70.75
2023-01-13T08:36:20.415Z,70.33
2023-01-13T08:37:20.398Z,70.50
2023-01-13T08:38:20.391Z,67.53
2023-01-13T08:39:20.437Z,70.08
2023-01-13T08:40:20.344Z,68.98
2023-01-13T08:41:20.331Z,71.07
2023-01-13T08:42:20.306Z,68.20
2023-01-13T08:43:20.309Z,69.83
2023-01-13T08:44:20.316Z,70.82
2023-01-13T08:45:20.278Z,69.86
2023-01-13T08:46:20.329Z,70.41
2023-01-13T08:47:20.300Z,69.94
2023-01-13T08:48:20.248Z,69.40
2023-01-13T08:49:20.233Z,70.22
2023-01-13T08:50:20.192Z,68.77
2023-01-13T08:51:20.209Z,71.10
2023-01-13T08:52:20.175Z,69.63
2023-01-13T08:53:20.180Z,69.13
2023-01-13T08:54:20.172Z,67.45
2023-01-13T08:55:20.108Z,69.19
2023-01-13T08:56:21.170Z,68.86
2023-01-13T08:57:20.149Z,70.65
2023-01-13T08:58:20.042Z,68.98
2023-01-13T08:59:20.081Z,68.70
2023-01-13T09:00:20.033Z,67.74
2023-01-13T09:01:20.130Z,68.20
2023-01-13T09:02:20.183Z,69.92
2023-01-13T09:03:19.975Z,68.12
2023-01-13T09:04:20.019Z,69.93
2023-01-13T09:05:19.923Z,68.66
2023-01-13T09:06:19.936Z,68.09
2023-01-13T09:07:19.901Z,67.88
2023-01-13T09:08:19.883Z,68.48
2023-01-13T09:09:19.890Z,69.29
2023-01-13T09:10:19.859Z,68.13
2023-01-13T09:11:19.841Z,69.48
2023-01-13T09:12:19.836Z,68.34
2023-01-13T09:13:19.786Z,66.33
2023-01-13T09:14:19.810Z,69.07
2023-01-13T09:15:19.793Z,68.11
2023-01-13T09:16:19.827Z,68.96
2023-01-13T09:17:19.720Z,70.76
2023-01-13T09:18:19.713Z,70.07
2023-01-13T09:19:19.720Z,68.37
2023-01-13T09:20:19.682Z,69.76
2023-01-13T09:21:19.651Z,68.82
2023-01-13T09:22:19.634Z,68.19
2023-01-13T09:23:19.622Z,67.47
2023-01-13T09:24:19.642Z,68.89
2023-01-13T09:25:19.593Z,68.28
2023-01-13T09:26:19.571Z,69.77
2023-01-13T09:27:19.577Z,69.98
2023-01-13T09:28:19.540Z,68.58
2023-01-13T09:29:19.583Z,69.08
2023-01-13T09:30:19.512Z,69.43
2023-01-13T09:31:19.581Z,69.95
2023-01-13T09:32:19.470Z,69.58
2023-01-13T09:33:19.457Z,69.67
2023-01-13T09:34:19.434Z,69.69
2023-01-13T09:35:19.452Z,67.77
2023-01-13T09:36:19.403Z,70.87
2023-01-13T09:37:19.384Z,69.71
2023-01-13T09:38:19.371Z,67.14
2023-01-13T09:39:19.462Z,68.19
2023-01-13T09:40:19.357Z,69.32
2023-01-13T09:41:19.326Z,68.44
2023-01-13T09:42:19.328Z,68.06
2023-01-13T09:43:19.284Z,68.97
2023-01-13T09:44:19.273Z,70.23
2023-01-13T09:45:19.281Z,67.83
2023-01-13T09:46:19.260Z,68.47
2023-01-13T09:47:19.238Z,69.00
2023-01-13T09:48:19.202Z,68.82
2023-01-13T09:49:19.181Z,68.73
2023-01-13T09:50:19.225Z,67.57
2023-01-13T09:51:19.250Z,66.55
2023-01-13T09:52:19.145Z,68.76
2023-01-13T09:53:19.159Z,67.97
2023-01-13T09:54:19.134Z,69.07
2023-01-13T09:55:19.149Z,69.50
2023-01-13T09:56:19.077Z,68.94
2023-01-13T09:57:19.064Z,67.66
2023-01-13T09:58:19.042Z,66.77
2023-01-13T09:59:19.021Z,69.77
2023-01-13T10:00:19.021Z,68.94
2023-01-13T10:01:20.109Z,68.13
2023-01-13T10:02:18.984Z,68.12
2023-01-13T10:03:18.976Z,67.57
2023-01-13T10:04:19.030Z,65.19
2023-01-13T10:05:18.961Z,68.51
2023-01-13T10:06:18.913Z,69.44
2023-01-13T10:07:19.208Z,68.57
2023-01-13T10:08:18.872Z,69.03
2023-01-13T10:09:18.855Z,69.11
2023-01-13T10:10:18.870Z,68.81
2023-01-13T10:11:18.845Z,67.82
2023-01-13T10:12:18.819Z,68.62
2023-01-13T10:13:18.801Z,70.94
2023-01-13T10:14:18.782Z,68.18
2023-01-13T10:15:18.785Z,70.13
2023-01-13T10:16:18.892Z,69.88
2023-01-13T10:17:18.735Z,68.46
2023-01-13T10:18:18.712Z,70.23
2023-01-13T10:19:18.701Z,71.17
2023-01-13T10:20:18.724Z,70.94
2023-01-13T10:21:18.656Z,70.00
2023-01-13T10:22:18.660Z,69.29
2023-01-13T10:23:18.662Z,68.91
2023-01-13T10:24:18.612Z,68.17
2023-01-13T10:25:18.630Z,68.40
2023-01-13T10:26:18.783Z,68.82
2023-01-13T10:27:18.563Z,70.57
2023-01-13T10:28:19.368Z,69.71
2023-01-13T10:29:19.537Z,67.51
2023-01-13T10:30:18.548Z,67.48
2023-01-13T10:31:18.591Z,68.58
2023-01-13T10:32:18.492Z,68.76
2023-01-13T10:33:18.457Z,69.30
2023-01-13T10:34:18.451Z,71.04
2023-01-13T10:35:18.469Z,70.05
2023-01-13T10:36:18.459Z,69.32
2023-01-13T10:37:18.431Z,67.26
2023-01-13T10:38:18.462Z,67.63
2023-01-13T10:39:18.401Z,67.56
2023-01-13T10:40:18.502Z,67.48
2023-01-13T10:41:18.375Z,70.68
2023-01-13T10:42:18.339Z,69.39
2023-01-13T10:43:18.303Z,68.89
2023-01-13T10:44:18.347Z,68.80
2023-01-13T10:45:18.313Z,68.87
2023-01-13T10:46:18.297Z,67.64
2023-01-13T10:47:18.248Z,66.77
2023-01-13T10:48:18.239Z,67.85
2023-01-13T10:49:18.201Z,70.08
2023-01-13T10:50:18.292Z,68.75
2023-01-13T10:51:18.180Z,68.80
2023-01-13T10:52:18.186Z,69.51
2023-01-13T10:53:18.157Z,67.26
2023-01-13T10:54:18.143Z,69.93
2023-01-13T10:55:18.135Z,69.85
2023-01-13T10:56:18.076Z,67.80
2023-01-13T10:57:18.069Z,67.19
2023-01-13T10:58:18.148Z,70.43
2023-01-13T10:59:18.014Z,70.05
2023-01-13T11:00:19.055Z,66.69
2023-01-13T11:01:18.087Z,68.12
2023-01-13T11:02:24.896Z,69.82
2023-01-13T11:03:20.016Z,67.88
2023-01-13T11:04:17.939Z,69.73
2023-01-13T11:05:17.980Z,68.49
2023-01-13T11:06:17.902Z,69.78
2023-01-13T11:07:17.902Z,68.14
2023-01-13T11:08:17.925Z,68.77
2023-01-13T11:09:17.882Z,69.54
2023-01-13T11:10:17.900Z,70.42
2023-01-13T11:11:17.896Z,70.81
2023-01-13T11:12:17.804Z,69.01
2023-01-13T11:13:17.787Z,67.38
2023-01-13T11:14:17.766Z,69.25
2023-01-13T11:15:17.791Z,68.92
2023-01-13T11:16:17.754Z,68.13
2023-01-13T11:17:17.722Z,68.37
2023-01-13T11:18:17.715Z,69.87
2023-01-13T11:19:17.704Z,70.78
2023-01-13T11:20:17.837Z,69.57
2023-01-13T11:21:17.652Z,68.55
2023-01-13T11:22:17.643Z,71.06
2023-01-13T11:23:17.653Z,69.19
2023-01-13T11:24:17.616Z,68.41
2023-01-13T11:25:17.638Z,67.46
2023-01-13T11:26:17.575Z,69.19
2023-01-13T11:27:17.596Z,69.62
2023-01-13T11:28:17.549Z,70.69
2023-01-13T11:29:17.553Z,70.46
2023-01-13T11:30:17.564Z,70.51
2023-01-13T11:31:17.556Z,68.02
2023-01-13T11:32:17.480Z,69.55
2023-01-13T11:33:17.474Z,72.00
2023-01-13T11:34:17.442Z,68.37
2023-01-13T11:35:17.460Z,69.43
2023-01-13T11:36:20.205Z,69.39
2023-01-13T11:37:17.414Z,70.87
2023-01-13T11:38:17.410Z,71.37
2023-01-13T11:39:17.378Z,70.25
2023-01-13T11:40:17.372Z,70.20
2023-01-13T11:41:17.321Z,68.16
2023-01-13T11:42:17.294Z,70.07
2023-01-13T11:43:17.330Z,69.69
2023-01-13T11:44:17.277Z,69.26
2023-01-13T11:45:17.305Z,68.75
2023-01-13T11:46:17.339Z,70.37
2023-01-13T11:47:17.222Z,70.82
2023-01-13T11:48:17.215Z,70.88
2023-01-13T11:49:17.179Z,69.85
2023-01-13T11:50:17.308Z,69.55
2023-01-13T11:51:17.166Z,70.61
2023-01-13T11:52:17.142Z,68.01
2023-01-13T11:53:17.126Z,69.30
2023-01-13T11:54:17.110Z,68.57
2023-01-13T11:55:17.122Z,68.53
2023-01-13T11:56:49.448Z,70.07
2023-01-13T11:57:17.049Z,69.74
2023-01-13T11:58:17.040Z,69.15
2023-01-13T11:59:17.031Z,68.68
2023-01-13T12:00:17.056Z,68.70
2023-01-13T12:01:17.043Z,70.84
2023-01-13T12:02:17.049Z,69.46
2023-01-13T12:03:17.014Z,69.32
2023-01-13T12:04:16.952Z,71.04
2023-01-13T12:05:16.964Z,69.90
2023-01-13T12:06:16.905Z,71.22
2023-01-13T12:07:16.888Z,70.90
2023-01-13T12:08:16.920Z,68.44
2023-01-13T12:09:16.856Z,70.44
2023-01-13T12:10:16.857Z,69.54
2023-01-13T12:11:16.819Z,67.04
2023-01-13T12:12:16.861Z,68.79
2023-01-13T12:13:16.797Z,68.75
2023-01-13T12:14:16.815Z,70.25
2023-01-13T12:15:16.800Z,69.74
2023-01-13T12:16:16.795Z,70.67
2023-01-13T12:17:16.754Z,70.91
2023-01-13T12:18:16.705Z,70.51
2023-01-13T12:19:16.693Z,69.74
2023-01-13T12:20:16.716Z,69.73
2023-01-13T12:21:16.647Z,69.38
2023-01-13T12:22:16.650Z,70.31
2023-01-13T12:23:16.643Z,67.26
2023-01-13T12:24:16.652Z,67.54
2023-01-13T12:25:16.615Z,67.49
2023-01-13T12:26:16.611Z,68.67
2023-01-13T12:27:16.628Z,68.82
2023-01-13T12:28:16.644Z,69.14
2023-01-13T12:29:16.516Z,70.58
2023-01-13T12:30:16.701Z,70.61
2023-01-13T12:31:16.498Z,67.54
2023-01-13T12:32:16.456Z,69.31
2023-01-13T12:33:18.686Z,68.68
2023-01-13T12:34:17.478Z,69.65
2023-01-13T12:35:16.464Z,68.61
2023-01-13T12:36:16.416Z,68.42
2023-01-13T12:37:16.393Z,70.05
2023-01-13T12:38:16.363Z,68.05
2023-01-13T12:39:16.339Z,70.30
2023-01-13T12:40:16.343Z,69.74
2023-01-13T12:41:16.333Z,69.47
2023-01-13T12:42:16.324Z,67.77
2023-01-13T12:43:16.296Z,68.21
2023-01-13T12:44:16.273Z,69.87
2023-01-13T12:45:18.446Z,70.15
2023-01-13T12:46:16.347Z,70.55
2023-01-13T12:47:16.214Z,68.49
2023-01-13T12:48:16.193Z,68.17
2023-01-13T12:49:16.251Z,69.60
2023-01-13T12:50:16.157Z,70.29
2023-01-13T12:51:18.194Z,68.52
2023-01-13T12:52:16.128Z,68.91